createdAt,value
2023-05-22T00:00:18.618Z,101439.00
2023-05-22T00:02:45.517Z,101433.00
2023-05-22T00:05:13.501Z,101433.00
2023-05-22T00:07:42.377Z,101430.00
2023-05-22T00:10:09.423Z,101432.00
2023-05-22T00:12:39.017Z,101428.00
2023-05-22T00:15:06.445Z,101427.00
2023-05-22T00:17:36.474Z,101428.00
2023-05-22T00:20:10.982Z,101428.00
2023-05-22T00:22:37.759Z,101435.00
2023-05-22T00:25:06.041Z,101419.00
2023-05-22T00:27:33.473Z,101425.00
2023-05-22T00:30:01.636Z,101424.00
2023-05-22T00:32:28.760Z,101415.00
2023-05-22T00:34:55.368Z,101423.00
2023-05-22T00:37:22.527Z,101420.00
2023-05-22T00:39:49.214Z,101413.00
2023-05-22T00:42:16.049Z,101407.00
2023-05-22T00:44:43.122Z,101407.00
2023-05-22T00:47:09.937Z,101407.00
2023-05-22T00:49:36.598Z,101412.00
2023-05-22T00:52:04.000Z,101402.00
2023-05-22T00:54:31.520Z,101407.00
2023-05-22T00:56:58.382Z,101405.00
2023-05-22T00:59:26.084Z,101405.00
2023-05-22T01:01:52.908Z,101401.00
2023-05-22T01:04:20.112Z,101398.00
2023-05-22T01:06:47.770Z,101397.00
2023-05-22T01:09:17.412Z,101405.00
2023-05-22T01:12:11.341Z,101411.00
2023-05-22T01:14:53.595Z,101405.00
2023-05-22T01:17:40.819Z,101404.00
2023-05-22T01:20:25.971Z,101403.00
2023-05-22T01:23:19.480Z,101400.00
2023-05-22T01:26:19.285Z,101400.00
2023-05-22T01:29:08.169Z,101398.00
2023-05-22T01:31:41.585Z,101411.00
2023-05-22T01:34:12.114Z,101401.00
2023-05-22T01:36:41.486Z,101393.00
2023-05-22T01:39:08.632Z,101398.00
2023-05-22T01:41:35.770Z,101399.00
2023-05-22T01:44:03.027Z,101401.00
2023-05-22T01:46:31.614Z,101390.00
2023-05-22T01:48:58.766Z,101403.00
2023-05-22T01:51:49.971Z,101404.00
2023-05-22T01:54:37.669Z,101402.00
2023-05-22T01:57:18.605Z,101398.00
2023-05-22T02:00:07.930Z,101400.00
2023-05-22T02:02:37.851Z,101396.00
2023-05-22T02:05:07.301Z,101407.00
2023-05-22T02:07:39.912Z,101397.00
2023-05-22T02:10:09.346Z,101397.00
2023-05-22T02:12:36.316Z,101395.00
2023-05-22T02:15:03.622Z,101398.00
2023-05-22T02:17:30.219Z,101402.00
2023-05-22T02:19:58.575Z,101393.00
2023-05-22T02:22:25.122Z,101389.00
2023-05-22T02:24:51.878Z,101389.00
2023-05-22T02:27:18.667Z,101385.00
2023-05-22T02:29:47.650Z,101384.00
2023-05-22T02:32:15.245Z,101388.00
2023-05-22T02:34:42.087Z,101388.00
2023-05-22T02:37:08.758Z,101390.00
2023-05-22T02:39:35.622Z,101378.00
2023-05-22T02:42:02.199Z,101375.00
2023-05-22T02:44:28.741Z,101382.00
2023-05-22T02:46:55.869Z,101380.00
2023-05-22T02:49:22.576Z,101367.00
2023-05-22T02:51:49.407Z,101373.00
2023-05-22T02:54:16.390Z,101373.00
2023-05-22T02:56:43.711Z,101375.00
2023-05-22T02:59:10.891Z,101368.00
2023-05-22T03:01:39.742Z,101370.00
2023-05-22T03:04:09.244Z,101364.00
2023-05-22T03:06:37.219Z,101368.00
2023-05-22T03:09:04.479Z,101368.00
2023-05-22T03:11:34.495Z,101370.00
2023-05-22T03:14:01.114Z,101364.00
2023-05-22T03:16:28.394Z,101368.00
2023-05-22T03:19:11.190Z,101359.00
2023-05-22T03:21:38.842Z,101352.00
2023-05-22T03:24:05.582Z,101346.00
2023-05-22T03:26:32.434Z,101364.00
2023-05-22T03:28:59.242Z,101352.00
2023-05-22T03:31:27.120Z,101347.00
2023-05-22T03:33:54.093Z,101356.00
2023-05-22T03:36:21.640Z,101350.00
2023-05-22T03:38:48.431Z,101333.00
2023-05-22T03:41:15.134Z,101338.00
2023-05-22T03:43:43.461Z,101339.00
2023-05-22T03:46:14.218Z,101337.00
2023-05-22T03:48:41.541Z,101340.00
2023-05-22T03:51:08.093Z,101345.00
2023-05-22T03:53:34.641Z,101347.00
2023-05-22T03:56:02.292Z,101345.00
2023-05-22T03:58:29.196Z,101345.00
2023-05-22T04:00:58.820Z,101338.00
2023-05-22T04:03:25.737Z,101336.00
2023-05-22T04:05:52.458Z,101336.00
2023-05-22T04:08:19.261Z,101341.00
2023-05-22T04:10:48.851Z,101337.00
2023-05-22T04:13:16.545Z,101339.00
2023-05-22T04:15:47.184Z,101344.00
2023-05-22T04:18:15.165Z,101345.00
2023-05-22T04:20:42.857Z,101336.00
2023-05-22T04:23:09.771Z,101342.00
2023-05-22T04:25:36.645Z,101346.00
2023-05-22T04:28:04.337Z,101337.00
2023-05-22T04:30:34.493Z,101348.00
2023-05-22T04:33:01.982Z,101342.00
2023-05-22T04:35:29.700Z,101341.00
2023-05-22T04:38:02.640Z,101345.00
2023-05-22T04:40:33.940Z,101339.00
2023-05-22T04:43:01.724Z,101348.00
2023-05-22T04:45:29.108Z,101336.00
2023-05-22T04:47:59.904Z,101338.00
2023-05-22T04:50:26.544Z,101336.00
2023-05-22T04:52:53.990Z,101339.00
2023-05-22T04:55:22.329Z,101338.00
2023-05-22T04:57:48.813Z,101332.00
2023-05-22T05:00:17.186Z,101334.00
2023-05-22T05:02:43.975Z,101326.00
2023-05-22T05:05:10.666Z,101333.00
2023-05-22T05:07:40.770Z,101339.00
2023-05-22T05:10:07.775Z,101340.00
2023-05-22T05:12:34.617Z,101329.00
2023-05-22T05:15:01.457Z,101328.00
2023-05-22T05:17:29.708Z,101332.00
2023-05-22T05:19:56.214Z,101334.00
2023-05-22T05:22:25.224Z,101332.00
2023-05-22T05:24:51.899Z,101341.00
2023-05-22T05:27:18.538Z,101336.00
2023-05-22T05:29:45.833Z,101337.00
2023-05-22T05:32:14.096Z,101338.00
2023-05-22T05:34:41.004Z,101328.00
2023-05-22T05:37:07.821Z,101334.00
2023-05-22T05:39:34.583Z,101332.00
2023-05-22T05:42:01.559Z,101327.00
2023-05-22T05:44:28.202Z,101335.00
2023-05-22T05:46:55.894Z,101335.00
2023-05-22T05:49:22.462Z,101342.00
2023-05-22T05:51:49.280Z,101338.00
2023-05-22T05:54:16.027Z,101342.00
2023-05-22T05:56:42.890Z,101336.00
2023-05-22T05:59:10.182Z,101331.00
2023-05-22T06:01:38.919Z,101338.00
2023-05-22T06:04:05.633Z,101334.00
2023-05-22T06:06:36.640Z,101333.00
2023-05-22T06:09:06.709Z,101338.00
2023-05-22T06:11:33.825Z,101334.00
2023-05-22T06:14:02.986Z,101340.00
2023-05-22T06:16:30.077Z,101337.00
2023-05-22T06:18:58.836Z,101331.00
2023-05-22T06:21:25.404Z,101337.00
2023-05-22T06:23:52.370Z,101326.00
2023-05-22T06:26:18.973Z,101323.00
2023-05-22T06:28:45.630Z,101313.00
2023-05-22T06:31:12.268Z,101316.00
2023-05-22T06:33:40.752Z,101323.00
2023-05-22T06:36:08.962Z,101320.00
2023-05-22T06:38:37.914Z,101318.00
2023-05-22T06:41:05.139Z,101324.00
2023-05-22T06:43:31.724Z,101325.00
2023-05-22T06:45:58.546Z,101313.00
2023-05-22T06:48:25.851Z,101317.00
2023-05-22T06:50:52.402Z,101319.00
2023-05-22T06:53:19.334Z,101318.00
2023-05-22T06:55:45.973Z,101313.00
2023-05-22T06:58:12.545Z,101316.00
2023-05-22T07:00:40.018Z,101321.00
2023-05-22T07:03:07.485Z,101324.00
2023-05-22T07:05:34.484Z,101319.00
2023-05-22T07:08:01.635Z,101330.00
2023-05-22T07:10:28.342Z,101334.00
2023-05-22T07:12:55.068Z,101330.00
2023-05-22T07:15:22.273Z,101321.00
2023-05-22T07:17:49.608Z,101329.00
2023-05-22T07:20:16.876Z,101325.00
2023-05-22T07:22:43.512Z,101318.00
2023-05-22T07:25:11.496Z,101318.00
2023-05-22T07:27:38.502Z,101317.00
2023-05-22T07:30:05.820Z,101311.00
2023-05-22T07:32:32.665Z,101311.00
2023-05-22T07:34:59.298Z,101304.00
2023-05-22T07:37:26.222Z,101309.00
2023-05-22T07:39:52.885Z,101305.00
2023-05-22T07:42:19.522Z,101302.00
2023-05-22T07:44:46.074Z,101307.00
2023-05-22T07:47:12.656Z,101309.00
2023-05-22T07:49:39.262Z,101315.00
2023-05-22T07:52:06.377Z,101314.00
2023-05-22T07:54:33.175Z,101322.00
2023-05-22T07:57:03.459Z,101315.00
2023-05-22T07:59:33.771Z,101313.00
2023-05-22T08:02:01.354Z,101306.00
2023-05-22T08:04:30.110Z,101309.00
2023-05-22T08:06:57.688Z,101303.00
2023-05-22T08:09:24.330Z,101313.00
2023-05-22T08:11:50.870Z,101311.00
2023-05-22T08:14:17.418Z,101309.00
2023-05-22T08:16:44.215Z,101324.00
2023-05-22T08:19:11.179Z,101322.00
2023-05-22T08:21:37.946Z,101316.00
2023-05-22T08:24:04.815Z,101309.00
2023-05-22T08:26:33.328Z,101305.00
2023-05-22T08:29:00.918Z,101302.00
2023-05-22T08:31:29.373Z,101305.00
2023-05-22T08:34:03.100Z,101304.00
2023-05-22T08:36:31.919Z,101301.00
2023-05-22T08:38:58.478Z,101301.00
2023-05-22T08:41:25.204Z,101309.00
2023-05-22T08:43:52.984Z,101308.00
2023-05-22T08:46:21.294Z,101310.00
2023-05-22T08:48:48.270Z,101302.00
2023-05-22T08:51:19.295Z,101305.00
2023-05-22T08:53:46.299Z,101295.00
2023-05-22T08:56:13.137Z,101299.00
2023-05-22T08:58:41.581Z,101278.00
2023-05-22T09:01:08.981Z,101281.00
2023-05-22T09:03:37.198Z,101288.00
2023-05-22T09:06:05.060Z,101285.00
2023-05-22T09:08:32.537Z,101271.00
2023-05-22T09:10:59.386Z,101280.00
2023-05-22T09:13:27.956Z,101277.00
2023-05-22T09:16:11.448Z,101288.00
2023-05-22T09:18:39.550Z,101277.00
2023-05-22T09:21:25.706Z,101278.00
2023-05-22T09:23:59.148Z,101279.00
2023-05-22T09:26:28.075Z,101281.00
2023-05-22T09:28:55.147Z,101277.00
2023-05-22T09:31:23.368Z,101288.00
2023-05-22T09:33:50.067Z,101274.00
2023-05-22T09:36:17.762Z,101261.00
2023-05-22T09:38:45.769Z,101264.00
2023-05-22T09:41:12.319Z,101257.00
2023-05-22T09:43:38.858Z,101249.00
2023-05-22T09:46:05.605Z,101256.00
2023-05-22T09:48:39.347Z,101256.00
2023-05-22T09:51:06.592Z,101275.00
2023-05-22T09:53:33.348Z,101273.00
2023-05-22T09:56:00.801Z,101255.00
2023-05-22T09:58:30.894Z,101261.00
2023-05-22T10:00:58.032Z,101261.00
2023-05-22T10:03:26.565Z,101249.00
2023-05-22T10:05:55.124Z,101265.00
2023-05-22T10:08:25.624Z,101255.00
2023-05-22T10:10:53.288Z,101256.00
2023-05-22T10:13:21.185Z,101246.00
2023-05-22T10:15:49.001Z,101249.00
2023-05-22T10:18:16.714Z,101230.00
2023-05-22T10:20:44.542Z,101234.00
2023-05-22T10:23:12.118Z,101236.00
2023-05-22T10:25:39.057Z,101247.00
2023-05-22T10:28:07.709Z,101245.00
2023-05-22T10:30:40.721Z,101243.00
2023-05-22T10:33:33.232Z,101234.00
2023-05-22T10:36:16.496Z,101238.00
2023-05-22T10:39:04.072Z,101242.00
2023-05-22T10:41:31.270Z,101223.00
2023-05-22T10:43:58.244Z,101236.00
2023-05-22T10:46:25.534Z,101222.00
2023-05-22T10:48:54.777Z,101221.00
2023-05-22T10:51:23.950Z,101223.00
2023-05-22T10:54:02.461Z,101218.00
2023-05-22T10:56:37.034Z,101205.00
2023-05-22T10:59:05.436Z,101205.00
2023-05-22T11:01:38.310Z,101198.00
2023-05-22T11:04:06.876Z,101207.00
2023-05-22T11:06:43.520Z,101202.00
2023-05-22T11:09:29.464Z,101211.00
2023-05-22T11:12:13.138Z,101189.00
2023-05-22T11:14:39.792Z,101195.00
2023-05-22T11:17:06.853Z,101196.00
2023-05-22T11:19:34.000Z,101183.00
2023-05-22T11:22:02.026Z,101183.00
2023-05-22T11:24:33.840Z,101185.00
2023-05-22T11:27:07.817Z,101194.00
2023-05-22T11:29:35.903Z,101184.00
2023-05-22T11:32:02.961Z,101183.00
2023-05-22T11:34:29.864Z,101178.00
2023-05-22T11:37:00.201Z,101175.00
2023-05-22T11:39:27.532Z,101174.00
2023-05-22T11:41:54.362Z,101177.00
2023-05-22T11:44:21.428Z,101168.00
2023-05-22T11:46:48.253Z,101162.00
2023-05-22T11:49:14.896Z,101160.00
2023-05-22T11:51:41.727Z,101158.00
2023-05-22T11:54:08.252Z,101154.00
2023-05-22T11:56:34.871Z,101153.00
2023-05-22T11:59:01.731Z,101140.00
2023-05-22T12:01:29.063Z,101149.00
2023-05-22T12:03:56.074Z,101152.00
2023-05-22T12:06:22.675Z,101140.00
2023-05-22T12:08:49.545Z,101144.00
2023-05-22T12:11:16.987Z,101150.00
2023-05-22T12:13:44.009Z,101145.00
2023-05-22T12:16:25.780Z,101140.00
2023-05-22T12:18:53.450Z,101139.00
2023-05-22T12:21:20.843Z,101137.00
2023-05-22T12:23:49.384Z,101136.00
2023-05-22T12:26:16.182Z,101132.00
2023-05-22T12:28:43.100Z,101140.00
2023-05-22T12:31:09.754Z,101130.00
2023-05-22T12:33:36.898Z,101126.00
2023-05-22T12:36:07.888Z,101133.00
2023-05-22T12:38:35.881Z,101132.00
2023-05-22T12:41:02.669Z,101133.00
2023-05-22T12:43:30.323Z,101124.00
2023-05-22T12:45:57.438Z,101133.00
2023-05-22T12:48:24.084Z,101130.00
2023-05-22T12:50:51.081Z,101131.00
2023-05-22T12:53:17.853Z,101129.00
2023-05-22T12:55:44.428Z,101132.00
2023-05-22T12:58:10.986Z,101124.00
2023-05-22T13:00:39.499Z,101125.00
2023-05-22T13:03:08.997Z,101127.00
2023-05-22T13:05:35.968Z,101125.00
2023-05-22T13:08:02.769Z,101125.00
2023-05-22T13:10:30.722Z,101132.00
2023-05-22T13:12:57.304Z,101134.00
2023-05-22T13:15:24.116Z,101123.00
2023-05-22T13:17:51.069Z,101111.00
2023-05-22T13:24:07.809Z,101095.00
2023-05-22T13:26:34.414Z,101113.00
2023-05-22T13:29:00.997Z,101123.00
2023-05-22T13:31:27.583Z,101105.00
2023-05-22T13:33:54.582Z,101109.00
2023-05-22T13:36:21.319Z,101105.00
2023-05-22T13:38:48.096Z,101103.00
2023-05-22T13:41:15.620Z,101108.00
2023-05-22T13:43:42.259Z,101088.00
2023-05-22T13:46:08.837Z,101101.00
2023-05-22T13:48:35.626Z,101105.00
2023-05-22T13:51:02.188Z,101083.00
2023-05-22T13:53:34.369Z,101078.00
2023-05-22T13:56:02.037Z,101085.00
2023-05-22T13:58:29.109Z,101095.00
2023-05-22T14:00:56.257Z,101084.00
2023-05-22T14:03:22.962Z,101085.00
2023-05-22T14:05:49.833Z,101081.00
2023-05-22T14:08:16.423Z,101080.00
2023-05-22T14:10:44.405Z,101075.00
2023-05-22T14:13:11.063Z,101072.00
2023-05-22T14:15:38.077Z,101073.00
2023-05-22T14:18:04.692Z,101086.00
2023-05-22T14:20:32.594Z,101094.00
2023-05-22T14:22:59.456Z,101093.00
2023-05-22T14:25:26.400Z,101105.00
2023-05-22T14:27:53.186Z,101090.00
2023-05-22T14:30:21.467Z,101086.00
2023-05-22T14:32:48.896Z,101081.00
2023-05-22T14:35:16.902Z,101078.00
2023-05-22T14:37:43.947Z,101058.00
2023-05-22T14:40:11.120Z,101062.00
2023-05-22T14:42:40.232Z,101064.00
2023-05-22T14:45:07.220Z,101064.00
2023-05-22T14:47:34.252Z,101061.00
2023-05-22T14:50:14.739Z,101060.00
2023-05-22T14:52:46.264Z,101043.00
2023-05-22T14:55:13.072Z,101054.00
2023-05-22T14:57:40.127Z,101055.00
2023-05-22T15:00:09.213Z,101059.00
2023-05-22T15:02:37.833Z,101043.00
2023-05-22T15:05:04.762Z,101041.00
2023-05-22T15:07:43.089Z,101040.00
2023-05-22T15:10:11.034Z,101039.00
2023-05-22T15:12:37.580Z,101021.00
2023-05-22T15:15:04.416Z,101029.00
2023-05-22T15:17:31.162Z,101022.00
2023-05-22T15:19:58.023Z,101026.00
2023-05-22T15:22:26.621Z,101012.00
2023-05-22T15:25:07.797Z,101016.00
2023-05-22T15:27:35.411Z,101007.00
2023-05-22T15:30:03.361Z,101011.00
2023-05-22T15:32:32.239Z,101019.00
2023-05-22T15:34:58.940Z,101012.00
2023-05-22T15:37:25.499Z,101008.00
2023-05-22T15:39:53.632Z,101003.00
2023-05-22T15:42:23.230Z,100998.00
2023-05-22T15:44:49.776Z,101008.00
2023-05-22T15:47:16.699Z,101006.00
2023-05-22T15:49:43.442Z,100996.00
2023-05-22T15:52:09.949Z,100995.00
2023-05-22T15:54:36.797Z,100995.00
2023-05-22T15:57:03.381Z,100984.00
2023-05-22T15:59:30.001Z,100982.00
2023-05-22T16:01:56.635Z,100979.00
2023-05-22T16:04:23.189Z,100979.00
2023-05-22T16:06:50.202Z,100978.00
2023-05-22T16:09:18.657Z,100973.00
2023-05-22T16:11:45.457Z,100985.00
2023-05-22T16:14:12.074Z,100984.00
2023-05-22T16:16:39.262Z,100978.00
2023-05-22T16:19:07.467Z,100993.00
2023-05-22T16:21:34.353Z,100988.00
2023-05-22T16:24:01.213Z,100986.00
2023-05-22T16:26:28.094Z,100984.00
2023-05-22T16:28:54.627Z,100979.00
2023-05-22T16:31:21.198Z,100978.00
2023-05-22T16:33:48.250Z,100972.00
2023-05-22T16:36:14.809Z,100978.00
2023-05-22T16:38:42.191Z,100973.00
2023-05-22T16:41:11.169Z,100978.00
2023-05-22T16:43:38.503Z,100978.00
2023-05-22T16:46:05.342Z,100987.00
2023-05-22T16:48:31.885Z,100980.00
2023-05-22T16:50:58.695Z,100970.00
2023-05-22T16:53:25.485Z,100982.00
2023-05-22T16:55:52.097Z,100978.00
2023-05-22T16:58:19.611Z,100975.00
2023-05-22T17:00:46.408Z,100970.00
2023-05-22T17:03:14.025Z,100980.00
2023-05-22T17:05:41.403Z,100972.00
2023-05-22T17:08:08.237Z,100970.00
2023-05-22T17:10:35.045Z,100981.00
2023-05-22T17:13:01.583Z,100979.00
2023-05-22T17:15:28.496Z,100974.00
2023-05-22T17:17:55.121Z,100982.00
2023-05-22T17:20:23.347Z,100984.00
2023-05-22T17:22:50.083Z,100985.00
2023-05-22T17:25:16.785Z,100984.00
2023-05-22T17:27:44.472Z,100983.00
2023-05-22T17:30:11.446Z,100985.00
2023-05-22T17:32:38.134Z,100987.00
2023-05-22T17:35:06.763Z,100974.00
2023-05-22T17:37:33.564Z,100974.00
2023-05-22T17:40:00.776Z,100974.00
2023-05-22T17:42:27.509Z,100975.00
2023-05-22T17:44:54.282Z,100973.00
2023-05-22T17:47:21.471Z,100978.00
2023-05-22T17:49:48.179Z,100964.00
2023-05-22T17:52:14.745Z,100972.00
2023-05-22T17:54:44.185Z,100974.00
2023-05-22T17:57:11.091Z,100966.00
2023-05-22T17:59:40.078Z,100960.00
2023-05-22T18:02:08.182Z,100968.00
2023-05-22T18:04:34.784Z,100965.00
2023-05-22T18:07:02.840Z,100966.00
2023-05-22T18:09:29.384Z,100957.00
2023-05-22T18:11:55.950Z,100958.00
2023-05-22T18:14:22.504Z,100965.00
2023-05-22T18:16:49.639Z,100957.00
2023-05-22T18:19:16.285Z,100956.00
2023-05-22T18:21:43.483Z,100954.00
2023-05-22T18:24:10.054Z,100956.00
2023-05-22T18:26:36.590Z,100961.00
2023-05-22T18:29:03.087Z,100956.00
2023-05-22T18:31:30.371Z,100959.00
2023-05-22T18:33:56.943Z,100958.00
2023-05-22T18:36:25.023Z,100964.00
2023-05-22T18:38:51.610Z,100959.00
2023-05-22T18:41:18.707Z,100963.00
2023-05-22T18:43:45.861Z,100962.00
2023-05-22T18:46:12.698Z,100958.00
2023-05-22T18:48:40.218Z,100957.00
2023-05-22T18:51:06.690Z,100957.00
2023-05-22T18:53:33.282Z,100958.00
2023-05-22T18:56:00.390Z,100955.00
2023-05-22T18:58:27.272Z,100956.00
2023-05-22T19:00:55.917Z,100950.00
2023-05-22T19:03:22.503Z,100957.00
2023-05-22T19:05:51.471Z,100960.00
2023-05-22T19:08:18.219Z,100962.00
2023-05-22T19:10:45.854Z,100956.00
2023-05-22T19:13:12.387Z,100963.00
2023-05-22T19:15:42.029Z,100961.00
2023-05-22T19:18:12.202Z,100969.00
2023-05-22T19:20:41.342Z,100964.00
2023-05-22T19:23:11.733Z,100966.00
2023-05-22T19:25:38.443Z,100971.00
2023-05-22T19:28:05.707Z,100972.00
2023-05-22T19:30:32.845Z,100974.00
2023-05-22T19:32:59.622Z,100984.00
2023-05-22T19:35:30.423Z,100977.00
2023-05-22T19:37:56.969Z,100985.00
2023-05-22T19:40:23.524Z,100974.00
2023-05-22T19:42:50.394Z,100985.00
2023-05-22T19:45:20.202Z,100979.00
2023-05-22T19:47:48.164Z,100980.00
2023-05-22T19:50:14.711Z,100980.00
2023-05-22T19:52:43.045Z,100980.00
2023-05-22T19:55:10.697Z,100986.00
2023-05-22T19:57:37.715Z,100983.00
2023-05-22T20:00:11.263Z,100981.00
2023-05-22T20:02:38.577Z,100978.00
2023-05-22T20:05:09.496Z,100977.00
2023-05-22T20:07:39.245Z,100982.00
2023-05-22T20:10:06.844Z,100977.00
2023-05-22T20:12:34.299Z,100977.00
2023-05-22T20:15:06.979Z,100977.00
2023-05-22T20:17:34.194Z,100978.00
2023-05-22T20:20:00.829Z,100977.00
2023-05-22T20:22:27.945Z,100984.00
2023-05-22T20:24:54.630Z,100985.00
2023-05-22T20:27:21.201Z,100983.00
2023-05-22T20:29:50.998Z,100982.00
2023-05-22T20:32:17.810Z,100976.00
2023-05-22T20:34:45.827Z,100980.00
2023-05-22T20:37:13.635Z,100981.00
2023-05-22T20:39:41.822Z,100977.00
2023-05-22T20:42:09.649Z,100984.00
2023-05-22T20:44:36.278Z,100970.00
2023-05-22T20:47:03.535Z,100979.00
2023-05-22T20:49:30.086Z,100976.00
2023-05-22T20:51:59.985Z,100985.00
2023-05-22T20:54:27.077Z,100978.00
2023-05-22T20:56:54.835Z,100983.00
2023-05-22T20:59:22.107Z,100983.00
2023-05-22T21:01:50.441Z,100977.00
2023-05-22T21:04:17.106Z,100975.00
2023-05-22T21:06:44.061Z,100982.00
2023-05-22T21:09:11.047Z,100971.00
2023-05-22T21:11:37.704Z,100981.00
2023-05-22T21:14:04.510Z,100980.00
2023-05-22T21:16:31.375Z,100979.00
2023-05-22T21:18:58.273Z,100986.00
2023-05-22T21:21:24.856Z,100988.00
2023-05-22T21:23:52.718Z,100981.00
2023-05-22T21:26:22.344Z,100983.00
2023-05-22T21:28:49.151Z,100981.00
2023-05-22T21:31:15.751Z,100983.00
2023-05-22T21:33:42.764Z,100979.00
2023-05-22T21:36:09.543Z,100983.00
2023-05-22T21:38:36.127Z,100980.00
2023-05-22T21:41:03.714Z,100978.00
2023-05-22T21:43:30.478Z,100978.00
2023-05-22T21:45:56.993Z,100978.00
2023-05-22T21:48:24.147Z,100968.00
2023-05-22T21:50:51.139Z,100973.00
2023-05-22T21:53:19.444Z,100983.00
2023-05-22T21:55:46.066Z,100979.00
2023-05-22T21:58:13.654Z,100980.00
2023-05-22T22:00:41.504Z,100974.00
2023-05-22T22:03:08.662Z,100969.00
2023-05-22T22:05:35.849Z,100964.00
2023-05-22T22:08:02.707Z,100965.00
2023-05-22T22:10:29.565Z,100969.00
2023-05-22T22:12:56.167Z,100966.00
2023-05-22T22:15:22.810Z,100954.00
2023-05-22T22:17:50.210Z,100958.00
2023-05-22T22:20:18.643Z,100959.00
2023-05-22T22:22:47.456Z,100964.00
2023-05-22T22:25:14.035Z,100963.00
2023-05-22T22:27:40.879Z,100957.00
2023-05-22T22:30:08.231Z,100956.00
2023-05-22T22:32:34.842Z,100959.00
2023-05-22T22:35:01.905Z,100954.00
2023-05-22T22:37:28.888Z,100950.00
2023-05-22T22:39:55.694Z,100953.00
2023-05-22T22:42:22.424Z,100942.00
2023-05-22T22:44:49.177Z,100937.00
2023-05-22T22:47:15.737Z,100936.00
2023-05-22T22:49:42.449Z,100939.00
2023-05-22T22:52:09.199Z,100938.00
2023-05-22T22:54:35.850Z,100937.00
2023-05-22T22:57:02.994Z,100933.00
2023-05-22T22:59:29.822Z,100921.00
2023-05-22T23:01:56.378Z,100925.00
2023-05-22T23:04:23.112Z,100923.00
2023-05-22T23:06:49.833Z,100919.00
2023-05-22T23:09:16.520Z,100917.00
2023-05-22T23:11:43.107Z,100910.00
2023-05-22T23:14:10.176Z,100912.00
2023-05-22T23:16:38.137Z,100907.00
2023-05-22T23:19:05.362Z,100905.00
2023-05-22T23:21:32.547Z,100899.00
2023-05-22T23:24:00.338Z,100901.00
2023-05-22T23:26:31.032Z,100907.00
2023-05-22T23:29:01.092Z,100896.00
2023-05-22T23:31:30.809Z,100896.00
2023-05-22T23:33:58.644Z,100899.00
2023-05-22T23:36:25.665Z,100889.00
2023-05-22T23:38:52.288Z,100874.00
2023-05-22T23:41:19.049Z,100883.00
2023-05-22T23:43:46.053Z,100865.00
2023-05-22T23:46:14.300Z,100869.00
2023-05-22T23:48:42.102Z,100870.00
2023-05-22T23:51:09.174Z,100862.00
2023-05-22T23:53:36.314Z,100857.00
2023-05-22T23:56:03.705Z,100850.00
2023-05-22T23:58:30.592Z,100844.00
